Airfield :
LOGIN :

Register | Disclaimer

   EN    FR    IT 

 










Legend :    VFR   Marginal VFR   IFR   Intensive IFR   Very Intensive IFR
Visi :
Ceiling :
>= 8 km
>= 3000ft
5 to 8 km
1000 to 3000 ft
1500m to 5 km
500 to 1000 ft
800 to 1500m
200 to 500 ft
< 800m
< 200 ft
Symbols :   Thunderstorms  Fog  Heavy snow  Heavy precipitations  Wind > 20 kt
SIGMETs :     Misc.  Thunderstorms  Icing  Turbulence  Mountain Waves  Volcanic Ashes






- Airport Elevation : 87 ft
- IATA code : FSC


LFKF - Figari

CURRENT METAR :
  • 200400Z AUTO VRB03KT CAVOK 05/03 Q1022 NOSIG

EXPIRED METARs :
  • 200330Z AUTO 04005KT 020V080 CAVOK 05/03 Q1022 BECMG 24010KT
  • 200300Z AUTO 04004KT CAVOK 06/04 Q1021 BECMG 24010KT
  • 200230Z AUTO 35004KT 240V050 CAVOK 09/05 Q1021
  • 200200Z AUTO 24008KT 200V260 CAVOK 10/06 Q1021

TAF TAF LFKF
Valid from the 20 at 03:00 until the 21 at 03:00 UTC


200200Z 2003/2103 24010KT CAVOK



MET'MAP, your aeronautical weather chart ! - Copyright ORBIFLY December 2007 - Disclaimer

ORBIFLY MET'MAP TEAM :

Programming & Development : Alexandra Zaïnal
Concept & original design : Baudouin d'Aumeries
Assistance for programming : Marc-Olivier Méhu
Technical & hardware support : Manuel Goepfert

Contact : metmap@orbifly.com




SOURCES & CREDITS :

   NOAA